Littleton, West Virginia
Current Conditions -  °F | °C
As of 12:53 PM on Thursday 23 Oct 2014 (Local Time) from KCKB Reporting Station
Overcast Overcast  
Wind Chill: 50°   Ceiling: 2100
Heat Index: 50°   Visibility: 10mi
Dew Point: 44°   Wind: 7mph
Humidity: 80%   Direction: 260°W
Pressure: 30.14"   Gusts: NA
Location:  39.7°N, 80.52°W
Report Text: KCKB 231653Z 26006KT 10SM BKN021 OVC030 10/07 A3014 RMK AO2 SLP203 T01000067
Loading
Personal Weather Stations






























Interactive Weather Map
Tropical Storm Tracking
New forecast layout! Learn more

10-Day Weather Forecast

Advertisements
Track Severe Weather on mobile